Time;durP1;ratioP1;P1;durP2;ratioP2;P2;SDS_P1;SDS_P2;PMS_P1;PMS_P2;Temp;Humidity;BMP_temperature;BMP_pressure;BME280_temperature;BME280_humidity;BME280_pressure;Samples;Min_cycle;Max_cycle;Signal;HPM_P1;HPM_P2
2022/12/08 00:00:06;;;;;;;;;;;2.10;99.90;;;;;;5085430;28;19984;-71
2022/12/08 00:02:32;;;;;;;;;;;2.10;99.90;;;;;;5085355;28;19963;-70
2022/12/08 00:10:28;;;;;;;;;;;2.00;99.90;;;;;;5085071;28;19931;-71
2022/12/08 00:12:54;;;;;;;;;;;2.00;99.90;;;;;;5084853;28;19983;-71
2022/12/08 00:15:22;;;;;;;;;;;2.00;99.90;;;;;;5084849;28;19951;-71
2022/12/08 00:17:49;;;;;;;;;;;2.00;99.90;;;;;;5083958;28;19960;-71
2022/12/08 00:20:15;;;;;;;;;;;2.00;99.90;;;;;;5084640;28;20255;-71
2022/12/08 00:22:42;;;;;;;;;;;2.00;99.90;;;;;;5085001;28;19983;-71
2022/12/08 00:25:09;;;;;;;;;;;2.00;99.90;;;;;;5084892;28;20011;-71
2022/12/08 00:27:35;;;;;;;;;;;2.00;99.90;;;;;;5083777;28;20334;-71
2022/12/08 00:30:04;;;;;;;;;;;2.00;99.90;;;;;;5083731;28;19955;-71
2022/12/08 00:32:32;;;;;;;;;;;2.00;99.90;;;;;;5084272;28;19921;-71
2022/12/08 00:34:58;;;;;;;;;;;1.90;99.90;;;;;;5084440;28;19956;-71
2022/12/08 00:37:25;;;;;;;;;;;1.90;99.90;;;;;;5083947;28;19995;-71
2022/12/08 00:39:52;;;;;;;;;;;1.90;99.90;;;;;;5084640;28;20136;-71
2022/12/08 00:42:18;;;;;;;;;;;1.90;99.90;;;;;;5084022;28;19983;-71
2022/12/08 00:44:46;;;;;;;;;;;1.90;99.90;;;;;;5084115;28;19921;-71
2022/12/08 00:47:13;;;;;;;;;;;2.00;99.90;;;;;;5081191;28;19927;-71
2022/12/08 00:49:41;;;;;;;;;;;2.00;99.90;;;;;;5084260;28;19987;-71
2022/12/08 00:52:08;;;;;;;;;;;1.90;99.90;;;;;;5084155;28;19959;-71
2022/12/08 00:54:35;;;;;;;;;;;2.00;99.90;;;;;;5084492;28;19951;-71
2022/12/08 00:57:01;;;;;;;;;;;1.90;99.90;;;;;;5083520;28;20004;-71
2022/12/08 00:59:28;;;;;;;;;;;1.90;99.90;;;;;;5083925;28;19991;-71
2022/12/08 01:01:55;;;;;;;;;;;1.90;99.90;;;;;;5083784;28;19959;-71
2022/12/08 01:04:21;;;;;;;;;;;1.90;99.90;;;;;;5084379;28;19952;-71
2022/12/08 01:06:49;;;;;;;;;;;1.90;99.90;;;;;;5083267;28;19952;-71
2022/12/08 01:09:17;;;;;;;;;;;1.90;99.90;;;;;;5083732;28;19951;-69
2022/12/08 01:11:44;;;;;;;;;;;1.90;99.90;;;;;;5084245;28;19984;-71
2022/12/08 01:14:11;;;;;;;;;;;1.90;99.90;;;;;;5084020;28;19927;-71
2022/12/08 01:16:40;;;;;;;;;;;1.80;99.90;;;;;;5082962;28;20204;-71
2022/12/08 01:19:07;;;;;;;;;;;1.90;99.90;;;;;;5083676;28;19928;-71
2022/12/08 01:21:33;;;;;;;;;;;1.90;99.90;;;;;;5083953;28;19952;-72
2022/12/08 01:24:01;;;;;;;;;;;1.80;99.90;;;;;;5083560;28;19951;-71
2022/12/08 01:26:28;;;;;;;;;;;1.80;99.90;;;;;;5082866;28;20139;-72
2022/12/08 01:28:55;;;;;;;;;;;1.80;99.90;;;;;;5083516;28;19962;-72
2022/12/08 01:31:22;;;;;;;;;;;1.80;99.90;;;;;;5083942;28;19999;-70
2022/12/08 01:33:49;;;;;;;;;;;1.80;99.90;;;;;;5083920;28;20052;-71
2022/12/08 01:36:19;;;;;;;;;;;1.80;99.90;;;;;;5083144;28;19987;-71
2022/12/08 01:38:45;;;;;;;;;;;1.90;99.90;;;;;;5083690;28;19920;-71
2022/12/08 01:41:15;;;;;;;;;;;1.90;99.90;;;;;;5080649;28;19984;-71
2022/12/08 01:44:00;;;;;;;;;;;1.90;99.90;;;;;;5082657;28;19959;-71
2022/12/08 01:46:27;;;;;;;;;;;1.90;99.90;;;;;;5083316;28;20166;-71
2022/12/08 01:48:56;;;;;;;;;;;1.90;99.90;;;;;;5083770;28;19956;-71
2022/12/08 01:51:23;;;;;;;;;;;1.80;99.90;;;;;;5083236;28;19952;-71
2022/12/08 01:53:50;;;;;;;;;;;1.70;99.90;;;;;;5085597;28;19952;-71
2022/12/08 01:56:20;;;;;;;;;;;1.80;99.90;;;;;;5086880;28;19979;-71
2022/12/08 01:58:48;;;;;;;;;;;1.80;99.90;;;;;;5087479;28;19967;-71
2022/12/08 02:01:14;;;;;;;;;;;1.70;99.90;;;;;;5079845;28;19956;-71
2022/12/08 02:03:43;;;;;;;;;;;1.60;99.90;;;;;;5087795;28;19971;-71
2022/12/08 02:06:10;;;;;;;;;;;1.60;99.90;;;;;;5087044;28;19979;-71
2022/12/08 02:08:38;;;;;;;;;;;1.60;99.90;;;;;;5087466;28;19971;-71
2022/12/08 02:11:05;;;;;;;;;;;1.60;99.90;;;;;;5087373;28;19962;-71
2022/12/08 02:13:33;;;;;;;;;;;1.60;99.90;;;;;;5087457;28;19960;-71
2022/12/08 02:16:03;;;;;;;;;;;1.60;99.90;;;;;;5086903;28;19921;-71
2022/12/08 02:18:35;;;;;;;;;;;1.60;99.90;;;;;;5087293;28;19984;-71
2022/12/08 02:21:06;;;;;;;;;;;1.60;99.90;;;;;;5087024;28;19955;-71
2022/12/08 02:23:36;;;;;;;;;;;1.60;99.90;;;;;;5087343;28;19991;-71
2022/12/08 02:26:21;;;;;;;;;;;1.60;99.90;;;;;;5086834;28;19955;-71
2022/12/08 02:29:02;;;;;;;;;;;1.60;99.90;;;;;;5086033;28;19983;-71
2022/12/08 02:31:34;;;;;;;;;;;1.60;99.90;;;;;;5087149;28;19974;-71
2022/12/08 02:34:09;;;;;;;;;;;1.60;99.90;;;;;;5087058;28;19936;-71
2022/12/08 02:36:42;;;;;;;;;;;1.60;99.90;;;;;;5086294;28;19963;-71
2022/12/08 02:39:11;;;;;;;;;;;1.60;99.90;;;;;;5086957;28;19956;-71
2022/12/08 02:41:41;;;;;;;;;;;1.60;99.90;;;;;;5084716;28;19920;-72
2022/12/08 02:44:11;;;;;;;;;;;1.60;99.90;;;;;;5086646;28;19989;-71
2022/12/08 02:46:40;;;;;;;;;;;1.60;99.90;;;;;;5085886;28;20208;-71
2022/12/08 02:49:08;;;;;;;;;;;1.60;99.90;;;;;;5086384;28;19951;-71
2022/12/08 02:51:34;;;;;;;;;;;1.60;99.90;;;;;;5086437;28;19958;-71
2022/12/08 02:54:02;;;;;;;;;;;1.60;99.90;;;;;;5086759;28;19948;-71
2022/12/08 02:56:35;;;;;;;;;;;1.50;99.90;;;;;;5086048;28;19959;-71
2022/12/08 02:59:16;;;;;;;;;;;1.60;99.90;;;;;;5086144;28;19963;-70
2022/12/08 03:02:01;;;;;;;;;;;1.50;99.90;;;;;;5086205;28;19952;-71
2022/12/08 03:04:33;;;;;;;;;;;1.50;99.90;;;;;;5079096;28;19959;-71
2022/12/08 03:07:04;;;;;;;;;;;1.40;99.90;;;;;;5085205;28;19987;-71
2022/12/08 03:09:35;;;;;;;;;;;1.50;99.90;;;;;;5086451;28;19952;-71
2022/12/08 03:12:05;;;;;;;;;;;1.50;99.90;;;;;;5086028;28;19959;-71
2022/12/08 03:14:33;;;;;;;;;;;1.40;99.90;;;;;;5086700;28;20011;-71
2022/12/08 03:17:00;;;;;;;;;;;1.40;99.90;;;;;;5085276;28;19959;-71
2022/12/08 03:19:28;;;;;;;;;;;1.30;99.90;;;;;;5086343;28;20003;-71
2022/12/08 03:22:01;;;;;;;;;;;1.30;99.90;;;;;;5086183;28;19967;-71
2022/12/08 03:24:29;;;;;;;;;;;1.30;99.90;;;;;;5086276;28;19920;-71
2022/12/08 03:26:57;;;;;;;;;;;1.20;99.90;;;;;;5085193;28;20208;-71
2022/12/08 03:29:24;;;;;;;;;;;1.20;99.90;;;;;;5083377;28;19989;-71
2022/12/08 03:31:54;;;;;;;;;;;1.20;99.90;;;;;;5086079;28;20147;-71
2022/12/08 03:34:21;;;;;;;;;;;1.20;99.90;;;;;;5085993;28;20084;-71
2022/12/08 03:36:48;;;;;;;;;;;1.20;99.90;;;;;;5085301;28;19921;-69
2022/12/08 03:39:16;;;;;;;;;;;1.10;99.90;;;;;;5085683;28;19948;-71
2022/12/08 03:41:43;;;;;;;;;;;1.10;99.90;;;;;;5061671;28;19959;-72
2022/12/08 03:44:10;;;;;;;;;;;1.10;99.90;;;;;;5065442;28;19921;-71
2022/12/08 03:46:36;;;;;;;;;;;1.10;99.90;;;;;;5064984;28;19952;-71
2022/12/08 03:49:03;;;;;;;;;;;1.10;99.90;;;;;;5074004;28;19955;-71
2022/12/08 03:51:30;;;;;;;;;;;1.10;99.90;;;;;;5077664;28;19956;-71
2022/12/08 03:53:56;;;;;;;;;;;1.10;99.90;;;;;;5085598;28;20296;-71
2022/12/08 03:56:25;;;;;;;;;;;1.00;99.90;;;;;;5084704;28;19952;-71
2022/12/08 03:58:53;;;;;;;;;;;1.00;99.90;;;;;;5085389;28;19991;-71
2022/12/08 04:01:19;;;;;;;;;;;1.00;99.90;;;;;;5085426;28;20153;-71
2022/12/08 04:03:46;;;;;;;;;;;1.00;99.90;;;;;;5085153;28;19956;-71
2022/12/08 04:06:13;;;;;;;;;;;0.90;99.90;;;;;;5084582;28;19956;-71
2022/12/08 04:08:40;;;;;;;;;;;0.90;99.90;;;;;;5085228;28;19958;-71
2022/12/08 04:11:06;;;;;;;;;;;0.90;99.90;;;;;;5085293;28;19963;-71
2022/12/08 04:13:35;;;;;;;;;;;0.90;99.90;;;;;;5085335;28;20004;-71
2022/12/08 04:16:01;;;;;;;;;;;0.90;99.90;;;;;;5082254;28;19997;-71
2022/12/08 04:18:28;;;;;;;;;;;0.90;99.90;;;;;;5096849;28;19956;-71
2022/12/08 04:20:55;;;;;;;;;;;0.80;99.90;;;;;;5084910;28;19927;-71
2022/12/08 04:23:22;;;;;;;;;;;0.90;99.90;;;;;;5085077;28;20182;-71
2022/12/08 04:25:48;;;;;;;;;;;0.90;99.90;;;;;;5084615;28;19920;-71
2022/12/08 04:28:15;;;;;;;;;;;0.90;99.90;;;;;;5084529;28;19962;-71
2022/12/08 04:30:43;;;;;;;;;;;0.80;99.90;;;;;;5073062;28;19944;-71
2022/12/08 04:33:09;;;;;;;;;;;0.90;99.90;;;;;;5064835;28;19988;-71
2022/12/08 04:35:36;;;;;;;;;;;0.80;99.90;;;;;;5064493;28;19971;-71
2022/12/08 04:38:03;;;;;;;;;;;0.80;99.90;;;;;;5064276;28;19964;-71
2022/12/08 04:40:30;;;;;;;;;;;0.80;99.90;;;;;;5064537;28;19992;-71
2022/12/08 04:42:56;;;;;;;;;;;0.80;99.90;;;;;;5064254;28;20232;-70
2022/12/08 04:45:23;;;;;;;;;;;0.80;99.90;;;;;;5064175;28;19921;-70
2022/12/08 04:47:51;;;;;;;;;;;0.80;99.90;;;;;;5063820;28;19956;-71
2022/12/08 04:50:18;;;;;;;;;;;0.70;99.90;;;;;;5064092;28;19920;-71
2022/12/08 04:52:44;;;;;;;;;;;0.70;99.90;;;;;;5063974;28;19928;-71
2022/12/08 04:55:11;;;;;;;;;;;0.70;99.90;;;;;;5081145;28;19958;-71
2022/12/08 04:57:38;;;;;;;;;;;0.70;99.90;;;;;;5083209;28;19928;-71
2022/12/08 05:00:05;;;;;;;;;;;0.70;99.90;;;;;;5083927;28;19951;-71
2022/12/08 05:02:32;;;;;;;;;;;0.60;99.90;;;;;;5084044;28;19927;-71
2022/12/08 05:05:00;;;;;;;;;;;0.70;99.90;;;;;;5083717;28;19921;-71
2022/12/08 05:07:27;;;;;;;;;;;0.70;99.90;;;;;;5083484;28;19967;-71
2022/12/08 05:09:54;;;;;;;;;;;0.70;99.90;;;;;;5083824;28;19983;-71
2022/12/08 05:12:20;;;;;;;;;;;0.70;99.90;;;;;;5084128;28;19956;-71
2022/12/08 05:14:47;;;;;;;;;;;0.70;99.90;;;;;;5083954;28;19952;-71
2022/12/08 05:17:14;;;;;;;;;;;0.70;99.90;;;;;;5082174;28;19927;-71
2022/12/08 05:19:40;;;;;;;;;;;0.70;99.90;;;;;;5086724;28;19962;-71
2022/12/08 05:22:09;;;;;;;;;;;0.80;99.90;;;;;;5088880;28;19959;-71
2022/12/08 05:24:35;;;;;;;;;;;0.80;99.90;;;;;;5083779;28;20152;-71
2022/12/08 05:27:02;;;;;;;;;;;0.80;99.90;;;;;;5083089;28;19963;-71
2022/12/08 05:29:29;;;;;;;;;;;0.80;99.90;;;;;;5083271;28;19963;-72
2022/12/08 05:31:56;;;;;;;;;;;0.80;99.90;;;;;;5083579;28;19927;-71
2022/12/08 05:34:23;;;;;;;;;;;0.90;99.90;;;;;;5083940;28;19959;-71
2022/12/08 05:36:49;;;;;;;;;;;0.90;99.90;;;;;;5086701;28;19959;-71
2022/12/08 05:39:17;;;;;;;;;;;0.90;99.90;;;;;;5083671;28;19956;-71
2022/12/08 05:41:44;;;;;;;;;;;0.80;99.90;;;;;;5083066;28;19956;-70
2022/12/08 05:44:10;;;;;;;;;;;0.90;99.90;;;;;;5083778;28;19985;-69
2022/12/08 05:46:37;;;;;;;;;;;1.00;99.90;;;;;;5082317;28;19967;-71
2022/12/08 05:49:04;;;;;;;;;;;0.90;99.90;;;;;;5071042;28;19952;-71
2022/12/08 05:51:30;;;;;;;;;;;0.90;99.90;;;;;;5075152;28;19979;-69
2022/12/08 05:53:57;;;;;;;;;;;0.90;99.90;;;;;;5083649;28;20113;-69
2022/12/08 05:56:25;;;;;;;;;;;0.90;99.90;;;;;;5082966;28;19975;-69
2022/12/08 05:58:52;;;;;;;;;;;0.90;99.90;;;;;;5083498;28;19991;-69
2022/12/08 06:01:19;;;;;;;;;;;0.90;99.90;;;;;;5083327;28;20254;-69
2022/12/08 06:03:46;;;;;;;;;;;0.90;99.90;;;;;;5095270;28;19955;-70
2022/12/08 06:06:17;;;;;;;;;;;0.90;99.90;;;;;;5088625;28;19956;-69
2022/12/08 06:08:43;;;;;;;;;;;0.90;99.90;;;;;;5083508;28;19956;-69
2022/12/08 06:11:17;;;;;;;;;;;1.00;99.90;;;;;;5080962;28;20172;-69
2022/12/08 06:13:45;;;;;;;;;;;0.90;99.90;;;;;;5083554;28;19920;-69
2022/12/08 06:16:13;;;;;;;;;;;1.00;99.90;;;;;;5071771;28;19952;-69
2022/12/08 06:18:40;;;;;;;;;;;1.00;99.90;;;;;;5058860;28;19979;-69
2022/12/08 06:21:08;;;;;;;;;;;1.00;99.90;;;;;;5059683;28;19955;-68
2022/12/08 06:23:35;;;;;;;;;;;1.00;99.90;;;;;;5084147;28;20183;-68
2022/12/08 06:26:02;;;;;;;;;;;1.10;99.90;;;;;;5094199;28;19996;-72
2022/12/08 06:28:29;;;;;;;;;;;1.00;99.90;;;;;;5083514;28;20152;-72
2022/12/08 06:30:57;;;;;;;;;;;1.10;99.90;;;;;;5082056;28;20099;-71
2022/12/08 06:33:24;;;;;;;;;;;1.10;99.90;;;;;;5071535;28;19958;-71
2022/12/08 06:35:50;;;;;;;;;;;1.10;99.90;;;;;;5096777;28;20005;-71
2022/12/08 06:38:17;;;;;;;;;;;1.10;99.90;;;;;;5102296;28;19987;-71
2022/12/08 06:40:44;;;;;;;;;;;1.10;99.90;;;;;;5106547;28;19956;-71
2022/12/08 06:43:11;;;;;;;;;;;1.10;99.90;;;;;;5107224;28;19987;-70
2022/12/08 06:45:37;;;;;;;;;;;1.10;99.90;;;;;;5107059;28;19994;-70
2022/12/08 06:48:05;;;;;;;;;;;1.10;99.90;;;;;;5106523;28;19957;-71
2022/12/08 06:50:33;;;;;;;;;;;1.10;99.90;;;;;;5106959;28;19963;-71
2022/12/08 06:53:00;;;;;;;;;;;1.10;99.90;;;;;;5106729;28;19927;-70
2022/12/08 06:55:27;;;;;;;;;;;1.10;99.90;;;;;;5106959;28;19967;-71
2022/12/08 06:57:54;;;;;;;;;;;1.20;99.90;;;;;;5106038;28;19927;-71
2022/12/08 07:00:21;;;;;;;;;;;1.20;99.90;;;;;;5106891;28;19983;-71
2022/12/08 07:02:47;;;;;;;;;;;1.20;99.90;;;;;;5106833;28;20174;-70
2022/12/08 07:05:15;;;;;;;;;;;1.20;99.90;;;;;;5106327;28;20231;-67
2022/12/08 07:07:42;;;;;;;;;;;1.20;99.90;;;;;;5105923;28;20220;-68
2022/12/08 07:10:09;;;;;;;;;;;1.20;99.90;;;;;;5106177;28;19991;-68
2022/12/08 07:12:35;;;;;;;;;;;1.20;99.90;;;;;;5106503;28;19951;-68
2022/12/08 07:15:02;;;;;;;;;;;1.20;99.90;;;;;;5106521;28;19947;-68
2022/12/08 07:17:29;;;;;;;;;;;1.20;99.90;;;;;;5105892;28;19920;-68
2022/12/08 07:19:55;;;;;;;;;;;1.20;99.90;;;;;;5106172;28;20170;-68
2022/12/08 07:22:23;;;;;;;;;;;1.20;99.90;;;;;;5106015;28;19958;-68
2022/12/08 07:24:50;;;;;;;;;;;1.20;99.90;;;;;;5106490;28;19920;-70
2022/12/08 07:27:17;;;;;;;;;;;1.20;99.90;;;;;;5088793;28;19921;-69
2022/12/08 07:29:44;;;;;;;;;;;1.30;99.90;;;;;;5085877;28;19920;-70
2022/12/08 07:32:10;;;;;;;;;;;1.30;99.90;;;;;;5086105;28;19921;-70
2022/12/08 07:34:37;;;;;;;;;;;1.30;99.90;;;;;;5085979;28;19998;-70
2022/12/08 07:37:04;;;;;;;;;;;1.30;99.90;;;;;;5085064;28;19921;-70
2022/12/08 07:39:32;;;;;;;;;;;1.30;99.90;;;;;;5085630;28;20178;-70
2022/12/08 07:41:59;;;;;;;;;;;1.40;99.90;;;;;;5085874;28;20352;-70
2022/12/08 07:44:26;;;;;;;;;;;1.30;99.90;;;;;;5085825;28;20180;-70
2022/12/08 07:46:52;;;;;;;;;;;1.20;99.90;;;;;;5084974;28;19956;-70
2022/12/08 07:49:19;;;;;;;;;;;1.30;99.90;;;;;;5085234;28;19983;-70
2022/12/08 07:51:45;;;;;;;;;;;1.20;99.90;;;;;;5084376;28;19943;-70
2022/12/08 07:54:13;;;;;;;;;;;1.30;99.90;;;;;;5085249;28;19940;-69
2022/12/08 07:56:41;;;;;;;;;;;1.20;99.90;;;;;;5084790;28;20175;-70
2022/12/08 07:59:07;;;;;;;;;;;1.30;99.90;;;;;;5085225;28;20123;-70
2022/12/08 08:01:34;;;;;;;;;;;1.30;99.90;;;;;;5085215;28;19955;-69
2022/12/08 08:04:03;;;;;;;;;;;1.30;99.90;;;;;;5085249;28;19974;-70
2022/12/08 08:06:30;;;;;;;;;;;1.30;99.90;;;;;;5084244;28;19920;-70
2022/12/08 08:08:56;;;;;;;;;;;1.30;99.90;;;;;;5084865;28;20250;-70
2022/12/08 08:11:23;;;;;;;;;;;1.30;99.90;;;;;;5084919;28;20243;-70
2022/12/08 08:13:51;;;;;;;;;;;1.40;99.90;;;;;;5085056;28;19921;-70
2022/12/08 08:16:18;;;;;;;;;;;1.40;99.90;;;;;;5084096;28;19928;-70
2022/12/08 08:18:46;;;;;;;;;;;1.40;99.90;;;;;;5084467;28;19920;-70
2022/12/08 08:21:13;;;;;;;;;;;1.40;99.90;;;;;;5076733;28;20139;-70
2022/12/08 08:23:40;;;;;;;;;;;1.30;99.90;;;;;;5084640;28;19924;-70
2022/12/08 08:26:06;;;;;;;;;;;1.30;99.90;;;;;;5083896;28;20223;-70
2022/12/08 08:28:33;;;;;;;;;;;1.30;99.90;;;;;;5084878;28;20089;-71
2022/12/08 08:31:01;;;;;;;;;;;1.30;99.90;;;;;;5084592;28;19936;-70
2022/12/08 08:33:28;;;;;;;;;;;1.30;99.90;;;;;;5084458;28;19920;-70
2022/12/08 08:35:55;;;;;;;;;;;1.30;99.90;;;;;;5084102;28;19971;-70
2022/12/08 08:38:22;;;;;;;;;;;1.40;99.90;;;;;;5083981;28;19924;-70
2022/12/08 08:40:48;;;;;;;;;;;1.40;99.90;;;;;;5084519;28;20259;-69
2022/12/08 08:43:28;;;;;;;;;;;1.40;99.90;;;;;;5084715;28;20108;-71
2022/12/08 08:45:56;;;;;;;;;;;1.40;99.90;;;;;;5084083;28;19929;-69
2022/12/08 08:48:24;;;;;;;;;;;1.50;99.90;;;;;;5083737;28;19921;-70
2022/12/08 08:50:51;;;;;;;;;;;1.50;99.90;;;;;;5084002;28;19920;-70
2022/12/08 08:53:17;;;;;;;;;;;1.50;99.90;;;;;;5084059;28;19920;-70
2022/12/08 08:55:44;;;;;;;;;;;1.60;99.90;;;;;;5083666;28;20207;-70
2022/12/08 08:58:11;;;;;;;;;;;1.60;99.90;;;;;;5083666;28;19920;-70
2022/12/08 09:00:38;;;;;;;;;;;1.70;99.90;;;;;;5083751;28;19921;-70
2022/12/08 09:03:05;;;;;;;;;;;1.70;99.90;;;;;;5084043;28;19963;-70
2022/12/08 09:05:33;;;;;;;;;;;1.70;99.90;;;;;;5083549;28;19939;-70
2022/12/08 09:07:59;;;;;;;;;;;1.70;99.90;;;;;;5083065;28;19920;-70
2022/12/08 09:10:26;;;;;;;;;;;1.70;99.90;;;;;;5083877;28;20207;-70
2022/12/08 09:12:53;;;;;;;;;;;1.70;99.90;;;;;;5083903;28;20251;-70
2022/12/08 09:15:20;;;;;;;;;;;1.70;99.90;;;;;;5083802;28;19927;-70
2022/12/08 09:17:46;;;;;;;;;;;1.70;99.90;;;;;;5082861;28;19954;-70
2022/12/08 09:20:13;;;;;;;;;;;1.60;99.90;;;;;;5083605;28;19960;-70
2022/12/08 09:22:41;;;;;;;;;;;1.70;99.90;;;;;;5083669;28;19994;-70
2022/12/08 09:25:08;;;;;;;;;;;1.70;99.90;;;;;;5083858;28;19921;-70
2022/12/08 09:27:35;;;;;;;;;;;1.70;99.90;;;;;;5083227;28;19921;-70
2022/12/08 09:30:01;;;;;;;;;;;1.70;99.90;;;;;;5083841;28;19925;-70
2022/12/08 09:32:28;;;;;;;;;;;1.70;99.90;;;;;;5083752;28;19927;-70
2022/12/08 09:34:55;;;;;;;;;;;1.70;99.90;;;;;;5083802;28;19991;-70
2022/12/08 09:37:21;;;;;;;;;;;1.80;99.90;;;;;;5083280;28;19952;-70
2022/12/08 09:39:49;;;;;;;;;;;1.80;99.90;;;;;;5083797;28;20002;-70
2022/12/08 09:42:22;;;;;;;;;;;1.80;99.90;;;;;;5083389;28;19928;-70
2022/12/08 09:44:53;;;;;;;;;;;1.80;99.90;;;;;;5083386;28;19959;-70
2022/12/08 09:47:21;;;;;;;;;;;1.80;99.90;;;;;;5083066;28;19920;-70
2022/12/08 09:49:51;;;;;;;;;;;1.80;99.90;;;;;;5083644;28;19988;-70
2022/12/08 09:52:20;;;;;;;;;;;1.80;99.90;;;;;;5083381;28;19956;-70
2022/12/08 09:54:47;;;;;;;;;;;1.80;99.90;;;;;;5083343;28;20007;-70
2022/12/08 09:57:16;;;;;;;;;;;1.80;99.90;;;;;;5082832;28;20274;-70
2022/12/08 09:59:44;;;;;;;;;;;1.80;99.90;;;;;;5083590;28;19983;-70
2022/12/08 10:02:21;;;;;;;;;;;1.80;99.90;;;;;;5083526;28;19983;-70
2022/12/08 10:04:48;;;;;;;;;;;1.90;99.90;;;;;;5083266;28;19984;-70
2022/12/08 10:07:17;;;;;;;;;;;2.00;99.90;;;;;;5082873;28;19959;-70
2022/12/08 10:09:48;;;;;;;;;;;2.00;99.90;;;;;;5083500;28;20176;-70
2022/12/08 10:12:19;;;;;;;;;;;2.00;99.90;;;;;;5083532;28;19962;-70
2022/12/08 10:14:47;;;;;;;;;;;2.10;99.90;;;;;;5085210;28;20160;-70
2022/12/08 10:17:17;;;;;;;;;;;2.10;99.90;;;;;;5086461;28;19920;-70
2022/12/08 10:19:45;;;;;;;;;;;2.10;99.90;;;;;;5087661;28;19927;-70
2022/12/08 10:22:15;;;;;;;;;;;2.20;99.90;;;;;;5084056;28;19921;-70
2022/12/08 10:24:46;;;;;;;;;;;2.20;99.90;;;;;;5087505;28;20238;-70
2022/12/08 10:27:12;;;;;;;;;;;2.30;99.90;;;;;;5086902;28;19952;-70
2022/12/08 10:29:40;;;;;;;;;;;2.30;99.90;;;;;;5087206;28;19944;-70
2022/12/08 10:32:13;;;;;;;;;;;2.40;99.90;;;;;;5087110;28;19921;-70
2022/12/08 10:34:55;;;;;;;;;;;2.40;99.90;;;;;;5086923;28;19980;-70
2022/12/08 10:37:21;;;;;;;;;;;2.50;99.90;;;;;;5085839;28;19983;-70
2022/12/08 10:39:58;;;;;;;;;;;2.50;99.90;;;;;;5086978;28;19964;-70
2022/12/08 10:42:25;;;;;;;;;;;2.50;99.90;;;;;;5086985;28;19964;-70
2022/12/08 10:44:58;;;;;;;;;;;2.40;99.90;;;;;;5086752;28;19963;-70
2022/12/08 10:47:27;;;;;;;;;;;2.40;99.90;;;;;;5085905;28;20097;-70
2022/12/08 10:50:06;;;;;;;;;;;2.40;99.90;;;;;;5086606;28;19983;-70
2022/12/08 10:52:37;;;;;;;;;;;2.40;99.90;;;;;;5086432;28;20195;-70
2022/12/08 10:55:04;;;;;;;;;;;2.40;99.90;;;;;;5086376;28;20141;-70
2022/12/08 10:57:30;;;;;;;;;;;2.40;99.90;;;;;;5085700;28;19987;-70
2022/12/08 10:59:58;;;;;;;;;;;2.40;99.90;;;;;;5086171;28;20279;-70
2022/12/08 11:02:25;;;;;;;;;;;2.50;99.90;;;;;;5086358;28;20258;-70
2022/12/08 11:04:58;;;;;;;;;;;2.50;99.90;;;;;;5086487;28;19952;-70
2022/12/08 11:07:24;;;;;;;;;;;2.60;99.90;;;;;;5086017;28;20179;-70
2022/12/08 11:09:56;;;;;;;;;;;2.50;99.90;;;;;;5086132;28;19952;-70
2022/12/08 11:12:23;;;;;;;;;;;2.50;99.90;;;;;;5086114;28;19928;-70
2022/12/08 11:14:50;;;;;;;;;;;2.50;99.90;;;;;;5086037;28;19983;-70
2022/12/08 11:17:25;;;;;;;;;;;2.60;99.90;;;;;;5085283;28;20010;-70
2022/12/08 11:19:56;;;;;;;;;;;2.60;99.90;;;;;;5086201;28;19942;-70
2022/12/08 11:22:25;;;;;;;;;;;2.60;99.90;;;;;;5086188;28;19921;-70
2022/12/08 11:24:59;;;;;;;;;;;2.60;99.90;;;;;;5085936;28;19956;-70
2022/12/08 11:27:26;;;;;;;;;;;2.70;99.90;;;;;;5084162;28;19921;-70
2022/12/08 11:29:52;;;;;;;;;;;2.70;99.90;;;;;;5085956;28;19983;-70
2022/12/08 11:32:21;;;;;;;;;;;2.80;99.90;;;;;;5085898;28;19983;-70
2022/12/08 11:34:50;;;;;;;;;;;2.80;99.90;;;;;;5085539;28;19951;-69
2022/12/08 11:37:19;;;;;;;;;;;2.80;99.90;;;;;;5085437;28;19920;-70
2022/12/08 11:39:49;;;;;;;;;;;2.80;99.90;;;;;;5085537;28;19970;-70
2022/12/08 11:42:18;;;;;;;;;;;2.70;99.90;;;;;;5085879;28;19970;-70
2022/12/08 11:44:47;;;;;;;;;;;2.70;99.90;;;;;;5085850;28;19963;-70
2022/12/08 11:47:16;;;;;;;;;;;2.70;99.90;;;;;;5077367;28;19956;-70
2022/12/08 11:49:46;;;;;;;;;;;2.70;99.90;;;;;;5085779;28;19963;-70
2022/12/08 11:52:17;;;;;;;;;;;2.70;99.90;;;;;;5085589;28;20157;-72
2022/12/08 11:54:46;;;;;;;;;;;2.70;99.90;;;;;;5085390;28;19940;-70
2022/12/08 11:57:14;;;;;;;;;;;2.80;99.90;;;;;;5084634;28;19992;-70
2022/12/08 11:59:43;;;;;;;;;;;2.80;99.90;;;;;;5085442;28;20147;-70
2022/12/08 12:02:13;;;;;;;;;;;2.80;99.90;;;;;;5085393;28;19926;-70
2022/12/08 12:04:43;;;;;;;;;;;2.90;99.90;;;;;;5085139;28;19958;-70
2022/12/08 12:07:33;;;;;;;;;;;2.90;99.90;;;;;;5082127;28;20015;-70
2022/12/08 12:10:15;;;;;;;;;;;2.90;99.90;;;;;;5085131;28;19956;-70
2022/12/08 12:12:50;;;;;;;;;;;2.80;99.90;;;;;;5082570;28;19927;-70
2022/12/08 12:15:24;;;;;;;;;;;2.90;99.90;;;;;;5084924;28;19951;-69
2022/12/08 12:17:52;;;;;;;;;;;2.90;99.90;;;;;;5084579;28;19956;-70
2022/12/08 12:20:20;;;;;;;;;;;2.90;99.90;;;;;;5084664;28;19963;-70
2022/12/08 12:22:50;;;;;;;;;;;2.80;99.90;;;;;;5085060;28;19987;-69
2022/12/08 12:25:18;;;;;;;;;;;2.70;99.90;;;;;;5084992;28;20165;-71
2022/12/08 12:27:48;;;;;;;;;;;2.70;99.90;;;;;;5083572;28;19983;-69
2022/12/08 12:30:20;;;;;;;;;;;2.70;99.90;;;;;;5082084;28;19928;-70
2022/12/08 12:32:51;;;;;;;;;;;2.70;99.90;;;;;;5080974;28;19955;-70
2022/12/08 12:35:21;;;;;;;;;;;2.70;99.90;;;;;;5084492;28;19955;-70
2022/12/08 12:37:48;;;;;;;;;;;2.60;99.90;;;;;;5083644;28;20025;-70
2022/12/08 12:40:17;;;;;;;;;;;2.60;99.90;;;;;;5084298;28;20205;-70
2022/12/08 12:42:45;;;;;;;;;;;2.60;99.90;;;;;;5084297;28;20152;-70
2022/12/08 12:45:24;;;;;;;;;;;2.60;99.90;;;;;;5084271;28;19967;-68
2022/12/08 12:47:51;;;;;;;;;;;2.60;99.90;;;;;;5084029;28;19920;-67
2022/12/08 12:50:42;;;;;;;;;;;2.60;99.90;;;;;;5083552;28;20394;-67
2022/12/08 12:53:23;;;;;;;;;;;2.60;99.90;;;;;;5079235;28;20211;-68
2022/12/08 12:55:51;;;;;;;;;;;2.60;99.90;;;;;;5083456;28;19991;-67
2022/12/08 12:58:36;;;;;;;;;;;2.70;99.90;;;;;;5084038;28;19921;-67
2022/12/08 13:01:21;;;;;;;;;;;2.60;99.90;;;;;;5083941;28;19959;-67
2022/12/08 13:03:51;;;;;;;;;;;2.60;99.90;;;;;;5083821;28;19926;-67
2022/12/08 13:06:22;;;;;;;;;;;2.70;99.90;;;;;;5083058;28;19942;-68
2022/12/08 13:08:50;;;;;;;;;;;2.70;99.90;;;;;;5084172;28;19965;-68
2022/12/08 13:11:17;;;;;;;;;;;2.70;99.90;;;;;;5084082;28;19920;-67
2022/12/08 13:13:55;;;;;;;;;;;2.70;99.90;;;;;;5084126;28;19956;-67
2022/12/08 13:16:23;;;;;;;;;;;2.70;99.90;;;;;;5083434;28;19966;-68
2022/12/08 13:18:52;;;;;;;;;;;2.80;99.90;;;;;;5083852;28;19956;-68
2022/12/08 13:21:20;;;;;;;;;;;2.70;99.90;;;;;;5083828;28;19979;-67
2022/12/08 13:23:47;;;;;;;;;;;2.70;99.90;;;;;;5083625;28;19921;-67
2022/12/08 13:26:16;;;;;;;;;;;2.70;99.90;;;;;;5083240;28;19920;-68
2022/12/08 13:29:02;;;;;;;;;;;2.70;99.90;;;;;;5083811;28;19963;-66
2022/12/08 13:31:39;;;;;;;;;;;2.70;99.90;;;;;;5078303;28;19999;-67
2022/12/08 13:34:10;;;;;;;;;;;2.60;99.90;;;;;;5083592;28;20212;-68
2022/12/08 13:36:39;;;;;;;;;;;2.70;99.90;;;;;;5083104;28;19920;-67
2022/12/08 13:39:07;;;;;;;;;;;2.70;99.90;;;;;;5083698;28;19955;-67
2022/12/08 13:41:37;;;;;;;;;;;2.80;99.90;;;;;;5080876;28;19977;-66
2022/12/08 13:44:05;;;;;;;;;;;2.80;99.90;;;;;;5080592;28;19927;-66
2022/12/08 13:46:36;;;;;;;;;;;2.80;99.90;;;;;;5082767;28;19947;-66
2022/12/08 13:49:03;;;;;;;;;;;2.80;99.90;;;;;;5088710;28;20167;-66
2022/12/08 13:51:35;;;;;;;;;;;2.70;99.90;;;;;;5091363;28;19921;-69
2022/12/08 13:54:06;;;;;;;;;;;2.70;99.90;;;;;;5084228;28;19927;-68
2022/12/08 13:56:36;;;;;;;;;;;2.60;99.90;;;;;;5084866;28;19951;-69
2022/12/08 13:59:06;;;;;;;;;;;2.50;99.90;;;;;;5088682;28;20187;-69
2022/12/08 14:01:37;;;;;;;;;;;2.50;99.90;;;;;;5085944;28;19956;-68
2022/12/08 14:04:03;;;;;;;;;;;2.60;99.90;;;;;;5089448;28;19952;-68
2022/12/08 14:06:36;;;;;;;;;;;2.50;99.90;;;;;;5088057;28;19951;-68
2022/12/08 14:09:05;;;;;;;;;;;2.60;99.90;;;;;;5083344;28;20243;-69
2022/12/08 14:11:35;;;;;;;;;;;2.60;99.90;;;;;;5083265;28;20262;-69
2022/12/08 14:14:03;;;;;;;;;;;2.50;99.90;;;;;;5083522;28;19924;-69
2022/12/08 14:16:32;;;;;;;;;;;2.50;99.90;;;;;;5082556;28;19983;-69
2022/12/08 14:19:04;;;;;;;;;;;2.60;99.90;;;;;;5083165;28;19992;-69
2022/12/08 14:21:32;;;;;;;;;;;2.60;99.90;;;;;;5083166;28;19964;-71
2022/12/08 14:24:01;;;;;;;;;;;2.60;99.90;;;;;;5083388;28;19983;-71
2022/12/08 14:26:30;;;;;;;;;;;2.50;99.90;;;;;;5082692;28;19963;-71
2022/12/08 14:28:57;;;;;;;;;;;2.50;99.90;;;;;;5083353;28;19983;-71
2022/12/08 14:31:23;;;;;;;;;;;2.50;99.90;;;;;;5078897;28;19920;-70
2022/12/08 14:33:50;;;;;;;;;;;2.50;99.90;;;;;;5083187;28;19963;-71
2022/12/08 14:36:17;;;;;;;;;;;2.40;99.90;;;;;;5082476;28;19952;-70
2022/12/08 14:38:45;;;;;;;;;;;2.50;99.90;;;;;;5082975;28;19920;-71
2022/12/08 14:41:12;;;;;;;;;;;2.50;99.90;;;;;;5074454;28;19964;-70
2022/12/08 14:43:39;;;;;;;;;;;2.50;99.90;;;;;;5083232;28;19955;-71